Time;durP1;ratioP1;P1;durP2;ratioP2;P2;SDS_P1;SDS_P2;PMS_P1;PMS_P2;Temp;Humidity;BMP_temperature;BMP_pressure;BME280_temperature;BME280_humidity;BME280_pressure;Samples;Min_cycle;Max_cycle;Signal;HPM_P1;HPM_P2
2021/07/13 00:02:16;;;;;;;16.65;10.58;;;;;;;22.18;70.41;100194.88;1730478;82;21521;-57
2021/07/13 00:04:43;;;;;;;16.57;10.72;;;;;;;22.18;70.56;100203.64;1729976;82;21170;-58
2021/07/13 00:07:10;;;;;;;12.88;10.35;;;;;;;22.15;70.40;100198.22;1726471;82;20963;-59
2021/07/13 00:09:38;;;;;;;11.50;10.03;;;;;;;22.14;70.34;100202.61;1734942;81;21533;-58
2021/07/13 00:12:06;;;;;;;12.10;10.00;;;;;;;22.10;70.47;100201.59;1732696;82;20941;-59
2021/07/13 00:14:32;;;;;;;10.60;8.38;;;;;;;22.07;70.41;100204.91;1732975;82;21509;-58
2021/07/13 00:17:01;;;;;;;;;;;;;;;22.03;70.23;100201.98;1732600;82;21488;-58
2021/07/13 00:19:28;;;;;;;12.70;8.35;;;;;;;22.01;70.29;100202.83;1733031;81;20122;-57
2021/07/13 00:21:55;;;;;;;8.63;7.75;;;;;;;21.99;70.19;100203.13;1731701;82;20988;-57
2021/07/13 00:24:22;;;;;;;12.93;9.20;;;;;;;22.01;70.22;100209.64;1734430;82;20896;-58
2021/07/13 00:26:48;;;;;;;9.78;7.90;;;;;;;22.03;70.01;100201.98;1732874;82;20983;-58
2021/07/13 00:29:16;;;;;;;8.13;7.20;;;;;;;22.04;70.03;100207.14;1733147;82;20991;-57
2021/07/13 00:31:44;;;;;;;12.90;7.65;;;;;;;22.08;70.03;100210.08;1731659;82;21529;-57
2021/07/13 00:34:11;;;;;;;9.80;7.83;;;;;;;22.10;69.94;100204.31;1731825;82;21057;-58
2021/07/13 00:36:38;;;;;;;9.95;7.60;;;;;;;22.11;69.77;100205.94;1731261;82;21042;-58
2021/07/13 00:39:05;;;;;;;10.88;6.72;;;;;;;22.12;69.63;100216.56;1732552;82;21433;-58
2021/07/13 00:41:35;;;;;;;12.00;7.70;;;;;;;22.13;69.57;100214.63;1731835;82;21169;-58
2021/07/13 00:44:03;;;;;;;8.30;7.25;;;;;;;22.13;69.47;100214.09;1733297;82;20979;-59
2021/07/13 00:46:31;;;;;;;8.38;7.22;;;;;;;22.14;69.33;100208.07;1735688;82;21456;-57
2021/07/13 00:49:03;;;;;;;9.23;6.67;;;;;;;22.15;69.28;100202.87;1706329;82;21593;-58
2021/07/13 00:51:27;;;;;;;;;;;;;;;22.15;69.11;100193.33;1685029;82;20932;-57
2021/07/13 00:53:54;;;;;;;6.42;5.83;;;;;;;22.12;68.87;100185.17;1728059;81;22325;-57
2021/07/13 00:56:20;;;;;;;7.72;5.83;;;;;;;22.05;68.77;100186.11;1732435;82;20978;-57
2021/07/13 00:58:47;;;;;;;8.08;6.58;;;;;;;21.97;68.72;100198.53;1704973;82;20931;-57
2021/07/13 01:01:14;;;;;;;8.53;6.47;;;;;;;21.93;69.00;100187.16;1732852;80;21545;-57
2021/07/13 01:03:40;;;;;;;8.48;6.15;;;;;;;21.96;69.08;100186.55;1733266;82;20911;-57
2021/07/13 01:06:07;;;;;;;8.90;6.22;;;;;;;21.99;68.98;100185.39;1731500;82;21224;-57
2021/07/13 01:08:42;;;;;;;7.60;6.50;;;;;;;22.02;68.84;100181.25;1731091;81;20938;-58
2021/07/13 01:11:32;;;;;;;8.63;6.80;;;;;;;22.02;69.03;100186.71;1730488;82;20968;-58
2021/07/13 01:14:10;;;;;;;9.80;7.33;;;;;;;22.01;69.19;100183.19;1731229;82;20975;-57
2021/07/13 01:16:56;;;;;;;9.25;6.90;;;;;;;22.04;69.35;100192.70;1730334;82;21513;-57
2021/07/13 01:19:42;;;;;;;11.45;7.42;;;;;;;22.08;69.46;100193.70;1730157;82;20932;-57
2021/07/13 01:22:16;;;;;;;9.50;7.17;;;;;;;22.11;69.41;100206.74;1733308;82;20888;-58
2021/07/13 01:25:12;;;;;;;8.08;6.55;;;;;;;22.10;69.22;100208.41;1733200;82;21477;-58
2021/07/13 01:28:04;;;;;;;7.83;6.65;;;;;;;22.10;69.13;100209.77;1731995;82;21465;-57
2021/07/13 01:30:38;;;;;;;7.15;6.28;;;;;;;22.09;69.00;100208.97;1736977;82;21082;-58
2021/07/13 01:33:18;;;;;;;10.28;6.87;;;;;;;22.11;68.80;100210.84;1730478;82;21805;-58
2021/07/13 01:35:53;;;;;;;9.20;6.00;;;;;;;22.11;68.64;100204.58;1735202;82;21382;-58
2021/07/13 01:38:24;;;;;;;8.30;6.28;;;;;;;22.11;68.51;100203.22;1734814;82;20995;-58
2021/07/13 01:40:58;;;;;;;8.15;6.40;;;;;;;22.11;68.41;100195.83;1729805;82;20983;-58
2021/07/13 01:43:24;;;;;;;7.40;6.15;;;;;;;22.12;68.34;100189.27;1730932;82;20951;-58
2021/07/13 01:45:53;;;;;;;7.08;6.10;;;;;;;22.12;68.43;100197.45;1717231;82;20960;-59
2021/07/13 01:48:19;;;;;;;6.87;6.17;;;;;;;22.13;68.53;100196.89;1731860;82;20994;-58
2021/07/13 01:50:50;;;;;;;6.55;5.95;;;;;;;22.16;68.60;100192.22;1734124;82;20971;-58
2021/07/13 01:53:16;;;;;;;;;;;;;;;22.17;68.54;100186.46;1736713;82;21042;-59
2021/07/13 01:55:43;;;;;;;7.75;6.28;;;;;;;22.20;68.64;100186.39;1732117;82;20130;-58
2021/07/13 01:58:09;;;;;;;7.22;6.28;;;;;;;22.20;68.75;100189.95;1731063;82;21130;-58
2021/07/13 02:00:36;;;;;;;9.58;6.67;;;;;;;22.22;68.83;100189.08;1734328;82;20963;-59
2021/07/13 02:03:02;;;;;;;9.28;6.60;;;;;;;22.25;68.84;100201.89;1733306;82;20991;-58
2021/07/13 02:05:30;;;;;;;8.68;6.85;;;;;;;22.26;68.85;100206.23;1732977;82;20935;-58
2021/07/13 02:08:00;;;;;;;8.93;6.60;;;;;;;22.26;68.89;100209.78;1730255;82;20934;-58
2021/07/13 02:10:27;;;;;;;9.08;6.83;;;;;;;22.27;69.08;100213.31;1733540;82;21155;-59
2021/07/13 02:12:54;;;;;;;8.33;6.58;;;;;;;22.29;69.13;100215.17;1730742;82;21010;-58
2021/07/13 02:15:22;;;;;;;9.05;7.10;;;;;;;22.31;69.15;100212.97;1731236;82;21000;-58
2021/07/13 02:17:51;;;;;;;7.47;6.78;;;;;;;22.32;69.17;100217.33;1731731;82;20928;-57
2021/07/13 02:20:21;;;;;;;8.13;6.87;;;;;;;22.34;69.21;100219.23;1732863;82;20983;-58
2021/07/13 02:22:48;;;;;;;9.33;6.72;;;;;;;22.33;69.28;100222.49;1732754;82;21144;-58
2021/07/13 02:25:14;;;;;;;8.70;6.97;;;;;;;22.35;69.34;100225.75;1729091;82;21118;-58
2021/07/13 02:27:59;;;;;;;8.28;6.78;;;;;;;22.36;69.40;100219.72;1730828;82;21051;-58
2021/07/13 02:30:26;;;;;;;11.60;6.97;;;;;;;22.37;69.50;100218.62;1731711;82;20983;-59
2021/07/13 02:33:06;;;;;;;9.68;6.78;;;;;;;22.39;69.58;100212.30;1733227;82;20975;-58
2021/07/13 02:35:41;;;;;;;11.43;7.30;;;;;;;22.43;69.68;100222.08;1736251;82;22004;-58
2021/07/13 02:38:08;;;;;;;10.72;7.10;;;;;;;22.44;69.77;100216.84;1732664;82;20904;-58
2021/07/13 02:40:37;;;;;;;8.65;7.15;;;;;;;22.45;69.96;100219.84;1734032;82;21505;-57
2021/07/13 02:43:04;;;;;;;10.43;6.92;;;;;;;22.48;70.03;100213.23;1731873;82;20968;-57
2021/07/13 02:45:30;;;;;;;8.10;7.25;;;;;;;22.50;70.08;100215.09;1705316;82;20991;-58
2021/07/13 02:47:57;;;;;;;10.90;6.85;;;;;;;22.54;70.16;100211.19;1731738;82;21151;-59
2021/07/13 02:50:23;;;;;;;10.70;8.05;;;;;;;22.55;70.20;100209.52;1733637;82;21733;-58
2021/07/13 02:52:52;;;;;;;10.38;8.75;;;;;;;22.57;70.29;100214.15;1729666;81;20983;-57
2021/07/13 02:55:21;;;;;;;11.80;7.90;;;;;;;22.56;70.41;100217.19;1732180;82;20868;-57
2021/07/13 02:57:50;;;;;;;8.98;7.37;;;;;;;22.49;70.53;100216.20;1733218;82;21445;-58
2021/07/13 03:00:17;;;;;;;;;;;;;;;22.48;70.73;100214.60;1737239;82;21783;-59
2021/07/13 03:02:46;;;;;;;8.58;7.53;;;;;;;22.47;70.71;100222.53;1735965;82;20144;-57
2021/07/13 03:05:18;;;;;;;9.85;7.58;;;;;;;22.45;70.79;100228.83;1733873;82;21537;-56
2021/07/13 03:07:46;;;;;;;12.25;7.72;;;;;;;22.46;70.89;100219.54;1732295;82;21042;-56
2021/07/13 03:10:13;;;;;;;9.85;8.00;;;;;;;22.50;70.88;100218.39;1732148;81;20975;-57
2021/07/13 03:12:43;;;;;;;9.93;7.72;;;;;;;22.52;70.72;100217.53;1739549;81;21151;-57
2021/07/13 03:15:11;;;;;;;10.43;7.60;;;;;;;22.50;70.66;100208.27;1735756;81;22781;-57
2021/07/13 03:17:38;;;;;;;9.73;7.47;;;;;;;22.52;70.72;100210.70;1740859;81;20944;-57
2021/07/13 03:20:06;;;;;;;11.55;8.13;;;;;;;22.57;70.65;100209.25;1740753;81;20957;-58
2021/07/13 03:22:38;;;;;;;;;;;;;;;22.65;70.51;100214.56;1743359;81;21462;-59
2021/07/13 03:25:08;;;;;;;8.40;7.50;;;;;;;22.73;70.31;100213.84;1741900;81;21146;-58
2021/07/13 03:27:34;;;;;;;8.70;7.80;;;;;;;22.77;70.13;100208.02;1739988;81;20987;-58
2021/07/13 03:30:01;;;;;;;11.08;8.23;;;;;;;22.82;70.11;100209.84;1735274;81;21627;-58
2021/07/13 03:32:28;;;;;;;9.43;7.78;;;;;;;22.84;70.03;100202.97;1739836;81;20931;-58
2021/07/13 03:34:55;;;;;;;13.60;8.85;;;;;;;22.89;70.07;100204.78;1739946;81;20985;-58
2021/07/13 03:37:22;;;;;;;11.83;8.10;;;;;;;22.93;70.02;100209.89;1740277;81;22358;-58
2021/07/13 03:39:48;;;;;;;9.63;8.03;;;;;;;23.00;69.61;100209.50;1740094;81;21033;-58
2021/07/13 03:42:17;;;;;;;9.53;8.53;;;;;;;23.04;69.22;100213.21;1739557;81;21018;-58
2021/07/13 03:44:44;;;;;;;11.60;8.13;;;;;;;23.14;69.11;100214.96;1739955;81;20931;-58
2021/07/13 03:47:13;;;;;;;11.38;8.93;;;;;;;23.53;68.57;100217.09;1739668;81;21021;-58
2021/07/13 03:49:40;;;;;;;13.85;8.88;;;;;;;24.01;67.41;100216.27;1740168;81;21167;-57
2021/07/13 03:52:08;;;;;;;9.50;8.58;;;;;;;24.69;66.11;100215.61;1740269;81;20888;-56
2021/07/13 03:54:35;;;;;;;10.70;8.65;;;;;;;25.69;63.75;100211.81;1740037;81;21035;-57
2021/07/13 03:57:02;;;;;;;10.25;8.15;;;;;;;26.85;60.62;100210.66;1737911;81;21568;-58
2021/07/13 03:59:29;;;;;;;12.82;8.80;;;;;;;28.03;57.30;100213.51;1742439;81;21465;-57
2021/07/13 04:01:56;;;;;;;9.98;8.38;;;;;;;29.19;54.38;100211.39;1740592;79;21109;-57
2021/07/13 04:04:22;;;;;;;11.57;8.40;;;;;;;30.27;51.28;100212.28;1709896;81;20911;-58
2021/07/13 04:06:49;;;;;;;10.10;8.15;;;;;;;31.15;48.87;100211.82;1745024;81;20852;-58
2021/07/13 04:09:15;;;;;;;10.55;8.10;;;;;;;31.98;46.51;100214.33;1740814;81;21036;-58
2021/07/13 04:11:44;;;;;;;8.70;7.87;;;;;;;32.65;44.70;100211.12;1730024;81;21466;-58
2021/07/13 04:14:12;;;;;;;9.03;8.05;;;;;;;33.24;43.32;100206.66;1730272;82;21537;-58
2021/07/13 04:16:40;;;;;;;9.13;8.30;;;;;;;33.78;41.86;100211.52;1734590;82;21018;-58
2021/07/13 04:19:07;;;;;;;10.28;7.78;;;;;;;34.16;40.59;100214.28;1734840;82;20995;-58
2021/07/13 04:21:33;;;;;;;11.08;8.00;;;;;;;34.28;40.08;100224.35;1729151;82;21023;-60
2021/07/13 04:24:01;;;;;;;10.43;9.25;;;;;;;34.05;40.37;100225.28;1733448;82;21014;-58
2021/07/13 04:26:28;;;;;;;12.07;8.50;;;;;;;33.69;40.36;100220.11;1733550;82;21153;-58
2021/07/13 04:28:55;;;;;;;8.63;7.72;;;;;;;33.46;41.38;100224.40;1732038;82;21345;-58
2021/07/13 04:31:21;;;;;;;9.00;8.17;;;;;;;33.64;41.38;100213.52;1731407;82;21630;-58
2021/07/13 04:33:47;;;;;;;9.40;8.48;;;;;;;34.01;40.65;100220.27;1729914;82;20948;-59
2021/07/13 04:36:14;;;;;;;9.53;8.08;;;;;;;34.34;40.11;100228.38;1732877;82;21012;-58
2021/07/13 04:38:41;;;;;;;11.33;8.65;;;;;;;34.58;39.61;100221.41;1731806;82;22383;-57
2021/07/13 04:41:08;;;;;;;9.10;8.20;;;;;;;34.78;39.49;100217.81;1733146;82;20904;-58
2021/07/13 04:43:35;;;;;;;9.10;8.25;;;;;;;34.95;39.38;100221.09;1732639;82;20986;-58
2021/07/13 04:46:02;;;;;;;8.60;7.42;;;;;;;35.00;39.32;100222.10;1730427;82;20975;-58
2021/07/13 04:48:29;;;;;;;10.98;8.38;;;;;;;34.93;39.42;100223.48;1733034;82;20924;-60
2021/07/13 04:50:57;;;;;;;11.10;7.03;;;;;;;34.78;39.20;100223.95;1738526;82;21451;-58
2021/07/13 04:53:24;;;;;;;9.75;8.73;;;;;;;34.58;39.05;100228.36;1733339;82;20991;-59
2021/07/13 04:55:52;;;;;;;9.90;8.90;;;;;;;34.40;40.17;100231.80;1733707;82;21118;-58
2021/07/13 04:58:18;;;;;;;8.95;8.05;;;;;;;34.21;40.18;100228.61;1730965;82;21454;-59
2021/07/13 05:00:45;;;;;;;9.65;8.68;;;;;;;34.01;40.50;100228.61;1732052;82;21018;-60
2021/07/13 05:03:11;;;;;;;9.98;7.95;;;;;;;33.80;40.47;100226.41;1732150;82;21741;-58
2021/07/13 05:05:38;;;;;;;9.33;8.10;;;;;;;33.71;41.15;100234.42;1732287;82;21071;-59
2021/07/13 05:08:05;;;;;;;10.30;8.53;;;;;;;33.79;40.91;100231.19;1730057;82;20964;-58
2021/07/13 05:10:32;;;;;;;12.63;7.72;;;;;;;33.89;40.82;100233.84;1733390;80;21031;-58
2021/07/13 05:13:00;;;;;;;9.68;8.30;;;;;;;33.97;40.86;100234.15;1733757;80;20892;-57
2021/07/13 05:15:27;;;;;;;11.45;8.23;;;;;;;34.12;40.69;100236.48;1735182;82;21149;-59
2021/07/13 05:17:53;;;;;;;8.83;7.80;;;;;;;34.32;40.26;100240.45;1729953;82;21015;-59
2021/07/13 05:20:22;;;;;;;9.95;8.08;;;;;;;34.48;39.07;100242.41;1737194;82;21014;-58
2021/07/13 05:22:49;;;;;;;8.20;7.50;;;;;;;34.53;38.76;100242.05;1732735;82;20924;-59
2021/07/13 05:25:17;;;;;;;7.80;7.00;;;;;;;34.74;38.91;100236.44;1733059;82;21039;-59
2021/07/13 05:27:44;;;;;;;7.67;6.58;;;;;;;35.20;38.35;100244.30;1732811;82;26626;-59
2021/07/13 05:30:12;;;;;;;6.75;5.85;;;;;;;35.66;36.64;100241.56;1729714;82;21022;-58
2021/07/13 05:32:39;;;;;;;7.97;6.92;;;;;;;35.86;35.91;100251.80;1732839;82;20947;-59
2021/07/13 05:35:07;;;;;;;8.70;6.25;;;;;;;36.10;35.10;100243.30;1732900;82;20947;-59
2021/07/13 05:37:33;;;;;;;8.58;7.58;;;;;;;36.46;34.44;100240.55;1733519;82;20959;-58
2021/07/13 05:40:00;;;;;;;10.93;8.43;;;;;;;36.70;33.12;100249.91;1733074;82;21876;-58
2021/07/13 05:42:27;;;;;;;9.68;8.18;;;;;;;36.44;33.42;100256.91;1732694;82;20936;-58
2021/07/13 05:44:55;;;;;;;15.72;8.95;;;;;;;36.04;34.24;100253.22;1734370;82;20995;-58
2021/07/13 05:47:22;;;;;;;10.95;8.65;;;;;;;35.84;34.94;100252.80;1730261;82;20987;-56
2021/07/13 05:49:48;;;;;;;11.97;8.83;;;;;;;35.76;35.25;100258.92;1732057;82;22033;-57
2021/07/13 05:52:15;;;;;;;11.12;9.20;;;;;;;35.97;34.70;100257.41;1732970;82;21165;-57
2021/07/13 05:54:42;;;;;;;15.15;10.78;;;;;;;36.31;34.40;100250.13;1732016;82;20932;-59
2021/07/13 05:57:09;;;;;;;22.73;13.53;;;;;;;36.64;35.33;100249.52;1732162;80;21501;-57
2021/07/13 05:59:35;;;;;;;18.75;11.90;;;;;;;36.75;35.45;100250.89;1728020;82;21023;-57
2021/07/13 06:02:03;;;;;;;16.32;10.90;;;;;;;36.56;35.75;100254.89;1734709;80;21464;-57
2021/07/13 06:04:29;;;;;;;14.98;10.75;;;;;;;36.29;34.99;100252.50;1736088;82;22116;-57
2021/07/13 06:06:56;;;;;;;18.92;11.95;;;;;;;35.90;36.20;100243.45;1731515;82;20916;-57
2021/07/13 06:09:22;;;;;;;16.05;11.45;;;;;;;35.54;36.26;100245.50;1733707;81;21569;-57
2021/07/13 06:11:50;;;;;;;19.60;12.15;;;;;;;35.16;37.09;100244.08;1744921;81;21042;-57
2021/07/13 06:14:17;;;;;;;18.00;13.53;;;;;;;34.85;37.31;100247.09;1748365;81;21055;-57
2021/07/13 06:16:44;;;;;;;21.82;14.35;;;;;;;34.59;38.48;100248.66;1745774;80;21217;-57
2021/07/13 06:19:11;;;;;;;18.80;13.28;;;;;;;34.42;38.37;100247.30;1743859;81;20964;-56
2021/07/13 06:21:37;;;;;;;23.57;15.35;;;;;;;34.24;38.99;100242.34;1744491;81;21590;-57
2021/07/13 06:24:05;;;;;;;28.52;19.30;;;;;;;34.17;39.67;100238.92;1744119;81;20952;-57
2021/07/13 06:26:31;;;;;;;;;;;;;;;34.08;39.33;100238.42;1747548;81;20991;-58
2021/07/13 06:28:58;;;;;;;25.40;16.47;;;;;;;33.78;40.67;100232.95;1746519;81;21108;-57
2021/07/13 06:31:25;;;;;;;29.37;18.67;;;;;;;33.63;41.55;100234.71;1744492;81;20993;-57
2021/07/13 06:33:52;;;;;;;49.25;26.42;;;;;;;33.60;41.13;100235.47;1749569;81;20952;-58
2021/07/13 06:36:18;;;;;;;87.57;39.88;;;;;;;33.54;40.67;100228.09;1745442;81;20967;-58
2021/07/13 06:38:45;;;;;;;96.78;44.93;;;;;;;33.46;40.40;100235.52;1747572;81;20920;-58
2021/07/13 06:41:11;;;;;;;89.97;39.48;;;;;;;33.35;40.28;100231.22;1746305;81;21108;-57
2021/07/13 06:43:39;;;;;;;73.33;35.38;;;;;;;33.24;41.89;100235.81;1746852;81;20972;-57
2021/07/13 06:46:05;;;;;;;88.80;39.10;;;;;;;33.15;41.12;100239.44;1742547;81;20992;-57
2021/07/13 06:48:32;;;;;;;78.83;36.65;;;;;;;32.97;40.75;100239.98;1746212;81;21532;-57
2021/07/13 06:50:58;;;;;;;67.95;33.90;;;;;;;32.69;41.34;100240.34;1746441;81;21004;-57
2021/07/13 06:53:25;;;;;;;72.75;33.63;;;;;;;32.43;41.47;100241.86;1745162;81;21084;-57
2021/07/13 06:55:52;;;;;;;97.22;45.83;;;;;;;32.30;42.22;100241.84;1745936;81;20936;-57
2021/07/13 06:58:18;;;;;;;93.72;44.23;;;;;;;32.27;42.30;100246.73;1745397;81;21469;-59
2021/07/13 07:00:45;;;;;;;100.67;43.85;;;;;;;32.00;42.54;100250.78;1746141;81;21030;-58
2021/07/13 07:03:12;;;;;;;76.13;35.90;;;;;;;31.66;43.53;100250.52;1746668;81;21052;-57
2021/07/13 07:05:40;;;;;;;65.32;33.55;;;;;;;31.37;44.19;100252.64;1746396;81;21116;-59
2021/07/13 07:08:08;;;;;;;65.00;31.00;;;;;;;31.19;45.15;100255.02;1748237;81;20850;-60
2021/07/13 07:10:35;;;;;;;59.15;31.20;;;;;;;31.08;45.07;100250.64;1745706;81;20908;-57
2021/07/13 07:13:03;;;;;;;59.38;29.77;;;;;;;30.92;45.05;100248.45;1746375;81;20983;-58
2021/07/13 07:15:29;;;;;;;45.12;26.02;;;;;;;30.90;46.86;100254.91;1746679;81;21018;-58
2021/07/13 07:17:57;;;;;;;35.10;20.17;;;;;;;31.07;45.17;100246.25;1745202;81;21922;-58
2021/07/13 07:20:28;;;;;;;41.28;20.75;;;;;;;31.18;43.61;100249.84;1744016;81;20932;-58
2021/07/13 07:22:55;;;;;;;36.85;21.42;;;;;;;31.16;44.96;100246.65;1745769;81;20945;-59
2021/07/13 07:25:23;;;;;;;39.65;21.00;;;;;;;31.29;45.61;100255.05;1749839;81;20983;-59
2021/07/13 07:27:51;;;;;;;33.58;20.97;;;;;;;31.49;45.24;100250.91;1745946;81;21609;-58
2021/07/13 07:30:18;;;;;;;30.90;19.62;;;;;;;31.68;45.25;100253.70;1745068;81;21173;-59
2021/07/13 07:32:45;;;;;;;33.25;20.82;;;;;;;31.84;44.56;100252.84;1744426;81;21490;-58
2021/07/13 07:35:12;;;;;;;33.37;20.97;;;;;;;31.95;44.21;100251.88;1745740;81;20952;-59
2021/07/13 07:37:39;;;;;;;31.77;19.70;;;;;;;32.01;43.22;100246.84;1745166;81;21627;-58
2021/07/13 07:40:09;;;;;;;22.13;15.13;;;;;;;31.97;42.99;100248.15;1747336;81;21510;-58
2021/07/13 07:42:36;;;;;;;23.85;13.18;;;;;;;31.94;43.47;100243.34;1746454;81;21143;-59
2021/07/13 07:45:05;;;;;;;17.45;10.82;;;;;;;31.98;44.40;100246.20;1746139;81;21019;-59
2021/07/13 07:47:32;;;;;;;14.80;9.10;;;;;;;32.05;43.79;100243.56;1743188;81;20976;-58
2021/07/13 07:49:59;;;;;;;11.68;10.48;;;;;;;32.12;44.71;100246.47;1745583;81;21016;-56
2021/07/13 07:52:26;;;;;;;14.80;9.18;;;;;;;32.20;43.83;100251.58;1747284;81;20996;-58
2021/07/13 07:54:52;;;;;;;11.88;8.68;;;;;;;32.22;43.39;100249.83;1745330;81;21114;-57
2021/07/13 07:57:19;;;;;;;13.58;9.83;;;;;;;32.20;43.34;100242.45;1746078;81;21435;-58
2021/07/13 07:59:47;;;;;;;11.25;8.80;;;;;;;32.06;44.05;100241.58;1745924;81;20962;-58
2021/07/13 08:02:14;;;;;;;9.13;8.23;;;;;;;31.96;44.10;100241.02;1746600;81;20980;-58
2021/07/13 08:04:41;;;;;;;12.88;9.78;;;;;;;31.93;43.73;100236.78;1743718;81;21023;-58
2021/07/13 08:07:07;;;;;;;17.30;9.13;;;;;;;31.81;43.60;100241.11;1748455;81;21124;-60
2021/07/13 08:09:34;;;;;;;13.60;8.45;;;;;;;31.70;44.48;100243.08;1745190;81;20932;-58
2021/07/13 08:12:03;;;;;;;11.90;8.93;;;;;;;31.69;44.27;100240.68;1732169;81;20991;-59
2021/07/13 08:14:29;;;;;;;10.68;9.50;;;;;;;31.62;44.50;100244.09;1728785;82;20995;-59
2021/07/13 08:16:57;;;;;;;15.63;10.00;;;;;;;31.53;44.69;100247.05;1729120;82;21584;-58
2021/07/13 08:19:24;;;;;;;12.28;9.60;;;;;;;31.45;45.43;100244.72;1730926;82;21126;-59
2021/07/13 08:21:50;;;;;;;12.65;9.73;;;;;;;31.46;46.21;100252.43;1727825;82;20849;-60
2021/07/13 08:24:18;;;;;;;11.57;9.10;;;;;;;31.47;45.97;100258.20;1729409;82;20903;-58
2021/07/13 08:26:46;;;;;;;9.13;8.23;;;;;;;31.49;45.57;100257.23;1730572;82;20900;-57
2021/07/13 08:29:13;;;;;;;13.58;10.60;;;;;;;31.49;44.39;100255.85;1733836;82;20962;-57
2021/07/13 08:31:41;;;;;;;11.55;9.75;;;;;;;31.42;44.97;100257.91;1727575;82;21169;-57
2021/07/13 08:34:08;;;;;;;10.38;8.95;;;;;;;31.32;45.59;100262.62;1729880;82;21434;-59
2021/07/13 08:36:35;;;;;;;11.55;8.90;;;;;;;31.32;44.97;100261.84;1730701;82;21051;-57
2021/07/13 08:39:01;;;;;;;10.45;9.23;;;;;;;31.39;44.78;100260.58;1727913;82;21019;-56
2021/07/13 08:41:30;;;;;;;10.00;8.95;;;;;;;31.37;44.22;100264.30;1729846;82;21059;-57
2021/07/13 08:43:57;;;;;;;10.30;9.20;;;;;;;31.34;44.30;100263.05;1727186;82;21172;-57
2021/07/13 08:46:24;;;;;;;;;;;;;;;31.27;44.88;100258.74;1733653;82;20976;-58
2021/07/13 08:48:52;;;;;;;11.93;10.28;;;;;;;31.22;45.69;100254.89;1729116;82;20143;-58
2021/07/13 08:51:20;;;;;;;9.95;9.03;;;;;;;31.23;45.04;100257.89;1730284;82;21552;-60
2021/07/13 08:53:47;;;;;;;9.63;8.60;;;;;;;31.28;45.56;100262.53;1732294;82;21497;-56
2021/07/13 08:56:14;;;;;;;10.08;8.40;;;;;;;31.33;45.07;100262.86;1729973;82;21215;-58
2021/07/13 08:58:41;;;;;;;10.27;9.23;;;;;;;31.39;43.74;100264.73;1727706;82;20982;-59
2021/07/13 09:01:08;;;;;;;9.28;8.25;;;;;;;31.45;43.47;100260.54;1732392;82;20900;-57
2021/07/13 09:03:36;;;;;;;10.13;8.85;;;;;;;31.45;43.08;100259.95;1730618;82;20896;-57
2021/07/13 09:06:04;;;;;;;13.88;9.85;;;;;;;31.45;44.49;100263.31;1730991;82;21501;-57
2021/07/13 09:08:35;;;;;;;10.25;9.25;;;;;;;31.47;44.59;100263.73;1730062;82;21198;-58
2021/07/13 09:11:13;;;;;;;12.45;10.58;;;;;;;31.50;43.22;100258.85;1736342;81;20996;-59
2021/07/13 09:13:47;;;;;;;13.98;10.43;;;;;;;31.49;42.33;100255.85;1750807;81;21785;-58
2021/07/13 09:16:24;;;;;;;13.00;9.30;;;;;;;31.40;42.53;100253.30;1748754;81;21044;-57
2021/07/13 09:18:54;;;;;;;13.43;9.85;;;;;;;31.35;42.73;100244.50;1746906;81;21011;-57
2021/07/13 09:21:26;;;;;;;10.40;9.40;;;;;;;31.35;43.20;100239.75;1747418;81;21624;-58
2021/07/13 09:24:16;;;;;;;10.90;9.83;;;;;;;31.37;43.59;100236.62;1746746;81;20979;-57
2021/07/13 09:26:57;;;;;;;13.00;10.45;;;;;;;31.41;43.83;100248.58;1747959;81;20948;-57
2021/07/13 09:29:42;;;;;;;11.75;9.53;;;;;;;31.45;43.73;100241.16;1751109;81;20944;-57
2021/07/13 09:32:25;;;;;;;11.88;10.40;;;;;;;31.42;43.11;100239.91;1752772;81;21075;-57
2021/07/13 09:35:06;;;;;;;13.50;9.23;;;;;;;31.38;42.62;100243.77;1745821;81;21876;-58
2021/07/13 09:37:43;;;;;;;15.23;10.03;;;;;;;31.30;43.46;100243.38;1748273;81;21003;-58
2021/07/13 09:40:15;;;;;;;13.30;11.85;;;;;;;31.30;44.61;100246.15;1748282;81;21000;-57
2021/07/13 09:42:47;;;;;;;13.83;11.08;;;;;;;31.32;46.03;100245.23;1748205;81;21537;-57
2021/07/13 09:45:28;;;;;;;13.38;11.65;;;;;;;31.28;45.99;100241.77;1748635;81;20996;-58
2021/07/13 09:47:57;;;;;;;12.23;10.05;;;;;;;31.20;45.91;100244.73;1748863;81;22018;-57
2021/07/13 09:50:39;;;;;;;11.35;10.25;;;;;;;31.15;46.52;100249.19;1745445;81;21506;-58
2021/07/13 09:53:06;;;;;;;12.58;10.40;;;;;;;31.15;47.61;100250.57;1746746;81;20985;-57
2021/07/13 09:55:33;;;;;;;;;;;;;;;31.12;47.63;100249.31;1748606;81;21016;-58
2021/07/13 09:58:15;;;;;;;12.57;11.00;;;;;;;31.09;47.90;100248.07;1686813;85;20448;-58
2021/07/13 10:00:45;;;;;;;11.28;9.70;;;;;;;31.06;47.86;100249.38;1744629;80;21783;-58
2021/07/13 10:03:14;;;;;;;11.83;10.13;;;;;;;31.01;46.78;100249.09;1749627;81;20971;-58
2021/07/13 10:05:44;;;;;;;15.45;10.53;;;;;;;30.93;45.97;100252.25;1747091;81;20987;-58
2021/07/13 10:08:13;;;;;;;13.72;11.05;;;;;;;30.81;45.35;100259.84;1745353;80;20996;-57
2021/07/13 10:10:43;;;;;;;13.05;8.88;;;;;;;30.65;46.72;100256.48;1746751;81;21075;-58
2021/07/13 10:13:15;;;;;;;9.88;8.45;;;;;;;30.52;47.02;100252.20;1729950;82;23388;-57
2021/07/13 10:15:42;;;;;;;6.85;5.90;;;;;;;30.46;44.74;100248.11;1729838;82;21718;-57
2021/07/13 10:18:09;;;;;;;8.58;6.10;;;;;;;30.37;43.70;100249.06;1730219;82;21557;-58
2021/07/13 10:20:36;;;;;;;9.55;7.42;;;;;;;30.37;43.32;100255.16;1729474;82;21010;-58
2021/07/13 10:23:06;;;;;;;8.00;6.75;;;;;;;30.39;43.45;100248.13;1730063;82;20975;-57
2021/07/13 10:25:44;;;;;;;12.85;7.03;;;;;;;30.38;43.17;100252.62;1733673;82;21170;-58
2021/07/13 10:28:12;;;;;;;8.83;6.95;;;;;;;30.30;43.76;100260.50;1730946;82;21480;-57
2021/07/13 10:30:46;;;;;;;8.60;6.28;;;;;;;30.22;44.58;100258.92;1733549;82;21500;-57
2021/07/13 10:33:36;;;;;;;7.70;6.37;;;;;;;30.20;44.52;100252.17;1730433;82;21520;-56
2021/07/13 10:36:32;;;;;;;7.70;4.72;;;;;;;30.17;44.22;100255.05;1730722;82;21003;-59
2021/07/13 10:39:25;;;;;;;10.60;7.95;;;;;;;30.18;43.02;100255.28;1728091;82;21111;-64
2021/07/13 10:41:52;;;;;;;14.33;8.73;;;;;;;30.20;44.30;100248.02;1732292;82;21504;-58
2021/07/13 10:44:43;;;;;;;9.95;7.70;;;;;;;30.14;45.02;100250.80;1732689;82;20991;-57
2021/07/13 10:47:27;;;;;;;13.03;8.25;;;;;;;30.10;44.77;100256.83;1726607;82;20994;-57
2021/07/13 10:50:24;;;;;;;9.85;8.40;;;;;;;30.08;45.53;100261.33;1729013;82;21012;-56
2021/07/13 10:52:57;;;;;;;14.63;9.10;;;;;;;30.00;44.13;100256.16;1732777;82;21139;-55
2021/07/13 10:55:38;;;;;;;11.18;6.47;;;;;;;29.82;45.25;100252.91;1730510;82;21587;-59
2021/07/13 10:58:17;;;;;;;7.45;6.00;;;;;;;29.70;45.18;100249.59;1731040;82;21022;-56
2021/07/13 11:00:58;;;;;;;10.48;5.47;;;;;;;29.69;44.37;100244.42;1729560;82;20994;-56
2021/07/13 11:03:33;;;;;;;7.87;5.40;;;;;;;29.72;43.86;100246.48;1726297;82;20948;-55
2021/07/13 11:06:17;;;;;;;4.70;4.20;;;;;;;29.77;42.07;100249.56;1726174;82;21136;-56
2021/07/13 11:08:51;;;;;;;7.67;3.98;;;;;;;29.74;39.23;100249.70;1729030;82;20984;-54
2021/07/13 11:11:28;;;;;;;7.42;4.42;;;;;;;29.64;39.96;100244.69;1728570;81;21505;-54
2021/07/13 11:14:06;;;;;;;5.20;4.00;;;;;;;29.60;39.68;100238.25;1730234;82;21497;-56
2021/07/13 11:16:38;;;;;;;5.47;3.87;;;;;;;29.54;40.18;100242.62;1730457;82;21020;-56
2021/07/13 11:19:15;;;;;;;4.70;3.60;;;;;;;29.48;39.61;100244.02;1730364;82;20904;-57
2021/07/13 11:21:50;;;;;;;6.25;3.83;;;;;;;29.47;40.60;100242.99;1732722;81;21536;-57
2021/07/13 11:24:22;;;;;;;3.95;3.47;;;;;;;29.52;39.12;100248.28;1735338;82;20960;-57
2021/07/13 11:26:54;;;;;;;4.00;3.30;;;;;;;29.56;39.58;100238.72;1734245;82;21458;-57
2021/07/13 11:29:24;;;;;;;4.33;3.90;;;;;;;29.62;39.34;100232.61;1732360;82;20983;-58
2021/07/13 11:31:57;;;;;;;5.25;4.75;;;;;;;29.66;38.25;100229.34;1732242;82;21132;-57
2021/07/13 11:34:25;;;;;;;3.67;3.35;;;;;;;29.58;38.79;100235.02;1730274;82;20991;-56